»·PEaware :: DAL1093 KSLC-KPDX

DAL1093 :: KSLC-KPDX

FLIGHT INFORMATION

Flight Status: Arrived
Operator:
Delta Air Lines
More flights by this operator :: More flights under this callsign
Pilot: Joe P. (13940)
Aircraft: CANADAIR CL-600 CRJ-900
(CRJ9)
More flights by this aircraft type
Origin: KSLC Salt Lake City Intl
United States
Destination: KPDX Portland Intl
United States
More flights between these airports :: More routes between these airports
Route: +TWF4 TWF J15 BOI J163 BKE DCT JOTBA HHOOD4
File this flight plan on PilotEdge
Remarks: SEL / ABCD -PBN / A1B1C1D1L1O1S1 NAV / RNVD1E2A1 DOF / 171223 REG / N806SK EET / KZSE0122 RVR / 200
Altitude:
(Current/Filed)
280ft
Speed:
(Current/Filed)
366kts
Departed: 23-Dec-17 09:19 AM
Arrived: 23-Dec-17 11:20 AM
Distance/Time
Traveled:
546nm/2:01
Distance/Time
To Go:
Arrived

Flight Plot

Page will automatically refresh every two minutes.

Flight plan parsing failed; only flown route is shown


Map Options




Map Legend


Flown Route
Filed Route
Departure Airport
Arrival Airport
Navaid (VOR, NDB)
Fix

Horizontal Profiles

Position Reports

Time Latitude Longitude Heading Altitude Ground
Speed
23-Dec-17 08:39 40.786928 -111.986794 205 4234ft 0kts
23-Dec-17 08:40 40.786928 -111.986794 205 4234ft 0kts
23-Dec-17 08:41 40.786928 -111.986794 205 4234ft 0kts
23-Dec-17 08:42 40.786928 -111.986794 205 4234ft 0kts
23-Dec-17 08:43 40.786928 -111.986794 205 4234ft 0kts
23-Dec-17 08:44 40.786928 -111.986794 205 4234ft 0kts
23-Dec-17 08:45 40.786928 -111.986794 205 4234ft 0kts
23-Dec-17 08:46 40.786928 -111.986794 205 4234ft 0kts
23-Dec-17 08:47 40.786928 -111.986794 205 4234ft 0kts
23-Dec-17 08:48 40.786928 -111.986794 205 4234ft 0kts
23-Dec-17 08:49 40.786928 -111.986794 205 4234ft 0kts
23-Dec-17 08:50 40.786928 -111.986794 205 4234ft 0kts
23-Dec-17 08:51 40.786928 -111.986794 205 4234ft 0kts
23-Dec-17 08:52 40.786928 -111.986794 205 4234ft 0kts
23-Dec-17 08:53 40.786928 -111.986794 205 4234ft 0kts
23-Dec-17 08:54 40.786928 -111.986794 205 4234ft 0kts
23-Dec-17 08:55 40.786928 -111.986794 205 4234ft 0kts
23-Dec-17 08:56 40.786928 -111.986794 205 4234ft 0kts
23-Dec-17 08:57 40.786928 -111.986794 205 4234ft 0kts
23-Dec-17 08:58 40.786928 -111.986794 205 4234ft 0kts
23-Dec-17 08:59 40.786928 -111.986794 205 4234ft 0kts
23-Dec-17 09:00 40.786928 -111.986794 205 4234ft 0kts
23-Dec-17 09:01 40.786928 -111.986794 205 4234ft 0kts
23-Dec-17 09:02 40.786928 -111.986794 205 4234ft 0kts
23-Dec-17 09:03 40.786928 -111.986794 205 4234ft 0kts
23-Dec-17 09:04 40.786928 -111.986794 205 4234ft 0kts
23-Dec-17 09:05 40.786928 -111.986794 205 4234ft 0kts
23-Dec-17 09:06 40.786928 -111.986794 205 4234ft 0kts
23-Dec-17 09:07 40.786928 -111.986794 205 4234ft 0kts
23-Dec-17 09:08 40.786928 -111.986794 205 4234ft 0kts
23-Dec-17 09:09 40.786928 -111.986794 205 4234ft 0kts
23-Dec-17 09:10 40.786933 -111.986792 205 4234ft 0kts
23-Dec-17 09:11 40.787298 -111.986264 278 4234ft 2kts
23-Dec-17 09:12 40.787151 -111.985838 296 4234ft 0kts
23-Dec-17 09:13 40.787152 -111.985841 296 4234ft 0kts
23-Dec-17 09:14 40.787202 -111.985974 296 4234ft 4kts
23-Dec-17 09:15 40.787983 -111.989920 265 4234ft 14kts
23-Dec-17 09:16 40.788677 -111.994040 357 4234ft 13kts
23-Dec-17 09:17 40.794145 -111.994580 352 4234ft 22kts
23-Dec-17 09:18 40.799054 -111.995166 355 4234ft 25kts
23-Dec-17 09:19 40.805635 -111.995910 354 4234ft 19kts
23-Dec-17 09:20 40.808229 -111.997199 231 4234ft 0kts
23-Dec-17 09:21 40.808202 -111.997242 228 4234ft 0kts
23-Dec-17 09:22 40.807762 -111.997921 255 4234ft 3kts
23-Dec-17 09:23 40.807739 -111.998059 258 4234ft 0kts
23-Dec-17 09:24 40.807496 -111.999220 187 4234ft 2kts
23-Dec-17 09:25 40.806309 -111.999127 173 4234ft 41kts
23-Dec-17 09:26 40.766543 -111.995314 180 5390ft 187kts
23-Dec-17 09:27 40.745708 -112.050618 267 8099ft 189kts
23-Dec-17 09:28 40.766209 -112.118942 287 10992ft 202kts
23-Dec-17 09:29 40.790910 -112.188610 292 13621ft 232kts
23-Dec-17 09:30 40.818164 -112.269887 292 16466ft 247kts
23-Dec-17 09:31 40.861515 -112.340544 323 19053ft 269kts
23-Dec-17 09:32 40.936830 -112.374276 333 20658ft 312kts
23-Dec-17 09:33 41.024758 -112.408630 332 22351ft 337kts
23-Dec-17 09:34 41.112934 -112.453202 319 24181ft 337kts
23-Dec-17 09:35 41.189209 -112.524590 316 26235ft 336kts
23-Dec-17 09:36 41.262558 -112.602022 316 27974ft 340kts
23-Dec-17 09:37 41.329622 -112.690817 306 28163ft 332kts
23-Dec-17 09:38 41.391476 -112.785023 307 28165ft 342kts
23-Dec-17 09:39 41.455685 -112.879962 305 28165ft 346kts
23-Dec-17 09:40 41.517753 -112.977028 306 28164ft 342kts
23-Dec-17 09:41 41.580039 -113.072709 306 28159ft 340kts
23-Dec-17 09:42 41.642451 -113.168467 306 28157ft 343kts
23-Dec-17 09:43 41.705425 -113.265213 306 28162ft 345kts
23-Dec-17 09:44 41.768298 -113.362651 306 28163ft 344kts
23-Dec-17 09:45 41.830613 -113.459560 306 28163ft 343kts
23-Dec-17 09:46 41.892770 -113.556622 306 28164ft 341kts
23-Dec-17 09:47 41.954368 -113.653144 306 28166ft 340kts
23-Dec-17 09:48 42.015615 -113.749431 306 28168ft 338kts
23-Dec-17 09:49 42.076585 -113.845607 306 28180ft 335kts
23-Dec-17 09:50 42.136822 -113.940907 306 28181ft 333kts
23-Dec-17 09:51 42.196687 -114.035701 306 28182ft 331kts
23-Dec-17 09:52 42.256449 -114.130155 306 28184ft 329kts
23-Dec-17 09:53 42.315419 -114.223893 305 28185ft 326kts
23-Dec-17 09:54 42.373819 -114.317466 305 28187ft 323kts
23-Dec-17 09:55 42.431456 -114.410105 305 28188ft 321kts
23-Dec-17 09:56 42.489816 -114.503204 308 28188ft 326kts
23-Dec-17 09:57 42.550255 -114.595952 306 28194ft 329kts
23-Dec-17 09:58 42.610464 -114.690276 306 28215ft 333kts
23-Dec-17 09:59 42.671722 -114.785777 306 28215ft 338kts
23-Dec-17 10:00 42.734001 -114.883019 306 28211ft 342kts
23-Dec-17 10:01 42.796703 -114.981272 306 28203ft 345kts
23-Dec-17 10:02 42.859657 -115.079908 306 28205ft 342kts
23-Dec-17 10:03 42.921955 -115.177299 306 28210ft 340kts
23-Dec-17 10:04 42.983421 -115.274551 306 28218ft 337kts
23-Dec-17 10:05 43.044532 -115.371599 306 28231ft 335kts
23-Dec-17 10:06 43.105021 -115.468004 306 28250ft 333kts
23-Dec-17 10:07 43.165206 -115.564233 306 28254ft 330kts
23-Dec-17 10:08 43.214795 -115.643815 306 28256ft 329kts
23-Dec-17 10:09 43.283942 -115.755096 306 28261ft 327kts
23-Dec-17 10:10 43.342671 -115.849898 306 28269ft 325kts
23-Dec-17 10:11 43.391428 -115.928568 306 28281ft 324kts
23-Dec-17 10:12 43.459267 -116.038845 308 28302ft 322kts
23-Dec-17 10:13 43.516843 -116.133053 308 28315ft 322kts
23-Dec-17 10:14 43.567122 -116.208911 313 28319ft 323kts
23-Dec-17 10:15 43.646085 -116.304749 314 28326ft 323kts
23-Dec-17 10:16 43.702093 -116.373302 314 28338ft 323kts
23-Dec-17 10:17 43.769284 -116.455908 314 28346ft 322kts
23-Dec-17 10:18 43.847204 -116.551620 314 28368ft 320kts
23-Dec-17 10:19 43.902699 -116.619715 314 28374ft 319kts
23-Dec-17 10:20 43.968916 -116.701882 313 28383ft 318kts
23-Dec-17 10:21 44.034320 -116.783706 314 28390ft 317kts
23-Dec-17 10:22 44.099595 -116.865497 314 28393ft 314kts
23-Dec-17 10:23 44.164630 -116.946868 314 28393ft 312kts
23-Dec-17 10:24 44.228983 -117.027533 315 28389ft 310kts
23-Dec-17 10:25 44.293077 -117.108268 314 28383ft 309kts
23-Dec-17 10:26 44.357148 -117.189140 314 28377ft 312kts
23-Dec-17 10:27 44.421985 -117.270966 315 28374ft 316kts
23-Dec-17 10:28 44.487915 -117.354193 315 28373ft 320kts
23-Dec-17 10:29 44.554224 -117.438530 315 28374ft 324kts
23-Dec-17 10:30 44.621231 -117.524230 315 28378ft 328kts
23-Dec-17 10:31 44.676582 -117.624018 295 28386ft 331kts
23-Dec-17 10:32 44.704892 -117.748047 292 28385ft 333kts
23-Dec-17 10:33 44.731850 -117.872671 292 28390ft 331kts
23-Dec-17 10:34 44.758558 -117.996181 292 28393ft 329kts
23-Dec-17 10:35 44.783470 -118.119871 290 28389ft 329kts
23-Dec-17 10:36 44.805042 -118.244904 289 28388ft 327kts
23-Dec-17 10:37 44.825891 -118.368725 289 28388ft 324kts
23-Dec-17 10:38 44.846729 -118.493268 289 28433ft 328kts
23-Dec-17 10:39 44.867841 -118.619545 289 28414ft 334kts
23-Dec-17 10:40 44.889453 -118.748314 288 28415ft 341kts
23-Dec-17 10:41 44.910803 -118.879169 288 28417ft 340kts
23-Dec-17 10:42 44.931804 -119.008697 288 28462ft 338kts
23-Dec-17 10:43 44.952583 -119.137746 288 28481ft 336kts
23-Dec-17 10:44 44.973195 -119.266675 288 28489ft 335kts
23-Dec-17 10:45 44.993549 -119.395051 288 28490ft 335kts
23-Dec-17 10:46 45.014006 -119.523682 288 28502ft 334kts
23-Dec-17 10:47 45.034247 -119.651744 288 28512ft 334kts
23-Dec-17 10:48 45.054067 -119.779785 288 28522ft 333kts
23-Dec-17 10:49 45.073774 -119.908057 288 28531ft 332kts
23-Dec-17 10:50 45.092406 -120.030475 288 27570ft 302kts
23-Dec-17 10:51 45.109926 -120.145108 288 25668ft 288kts
23-Dec-17 10:52 45.126300 -120.254493 288 24810ft 277kts
23-Dec-17 10:53 45.142156 -120.361609 288 24624ft 288kts
23-Dec-17 10:54 45.159342 -120.475351 288 24566ft 296kts
23-Dec-17 10:55 45.188631 -120.580747 301 24573ft 285kts
23-Dec-17 10:56 45.227341 -120.677857 301 24584ft 282kts
23-Dec-17 10:57 45.264747 -120.775340 301 24598ft 279kts
23-Dec-17 10:58 45.301776 -120.871674 301 24611ft 277kts
23-Dec-17 10:59 45.338485 -120.967983 301 24621ft 275kts
23-Dec-17 11:00 45.374150 -121.061854 301 24263ft 262kts
23-Dec-17 11:01 45.408983 -121.150972 301 23440ft 256kts
23-Dec-17 11:02 45.437508 -121.243814 291 21986ft 259kts
23-Dec-17 11:03 45.455583 -121.343305 291 20432ft 259kts
23-Dec-17 11:04 45.475764 -121.441274 293 18962ft 257kts
23-Dec-17 11:05 45.494781 -121.540015 291 17540ft 258kts
23-Dec-17 11:06 45.513868 -121.638842 291 16132ft 259kts
23-Dec-17 11:07 45.535604 -121.737209 294 14778ft 259kts
23-Dec-17 11:08 45.535524 -121.843623 274 13498ft 271kts
23-Dec-17 11:09 45.537829 -121.950757 277 12215ft 271kts
23-Dec-17 11:10 45.557072 -122.053189 291 11048ft 267kts
23-Dec-17 11:11 45.578638 -122.151001 288 10289ft 254kts
23-Dec-17 11:12 45.598658 -122.247202 287 9693ft 252kts
23-Dec-17 11:13 45.618301 -122.337857 285 8606ft 231kts
23-Dec-17 11:14 45.636538 -122.426969 285 7678ft 230kts
23-Dec-17 11:15 45.659323 -122.512333 298 6295ft 231kts
23-Dec-17 11:16 45.689598 -122.593301 297 5756ft 230kts
23-Dec-17 11:17 45.719748 -122.672401 298 5213ft 221kts
23-Dec-17 11:18 45.747256 -122.749953 299 4709ft 220kts
23-Dec-17 11:19 45.740100 -122.821194 216 3472ft 189kts
23-Dec-17 11:20 45.701225 -122.853069 159 3081ft 144kts
23-Dec-17 11:21 45.670968 -122.818131 119 3013ft 146kts
23-Dec-17 11:22 45.651080 -122.765251 117 2328ft 152kts
23-Dec-17 11:23 45.631407 -122.714805 118 1506ft 137kts
23-Dec-17 11:24 45.611623 -122.663677 119 731ft 150kts
23-Dec-17 11:25 45.591188 -122.611506 117 31ft 128kts
23-Dec-17 11:26 45.584214 -122.592028 56 25ft 0kts
23-Dec-17 11:27 45.584255 -122.591951 48 25ft 0kts
23-Dec-17 11:28 45.584259 -122.591944 47 25ft 0kts
23-Dec-17 11:29 45.585156 -122.592071 321 25ft 12kts
23-Dec-17 11:30 45.587513 -122.596481 301 25ft 15kts
23-Dec-17 11:31 45.590056 -122.601477 27 25ft 12kts
23-Dec-17 11:32 45.592666 -122.597395 31 25ft 14kts
23-Dec-17 11:33 45.592751 -122.595406 106 25ft 12kts
23-Dec-17 11:34 45.591330 -122.594098 204 25ft 0kts
23-Dec-17 11:35 45.591325 -122.594101 204 25ft 0kts
23-Dec-17 11:36 45.591323 -122.594103 204 25ft 0kts
23-Dec-17 11:37 45.591323 -122.594103 204 25ft 0kts
23-Dec-17 11:38 45.591323 -122.594103 204 25ft 0kts
23-Dec-17 11:39 45.591323 -122.594103 204 25ft 0kts

Navigation Log

Ident Type
Flight plan parsing failed, navigation log unavailable